Time;durP1;ratioP1;P1;durP2;ratioP2;P2;SDS_P1;SDS_P2;PMS_P1;PMS_P2;Temp;Humidity;BMP_temperature;BMP_pressure;BME280_temperature;BME280_humidity;BME280_pressure;Samples;Min_cycle;Max_cycle;Signal;HPM_P1;HPM_P2
2022/12/30 00:00:11;;;;;;;102.28;52.88;;;;;;;1.85;88.13;100400.88;5103398;28;20020;-69
2022/12/30 00:02:36;;;;;;;113.10;58.58;;;;;;;1.97;86.71;100398.84;5104537;28;20024;-68
2022/12/30 00:05:02;;;;;;;127.15;62.58;;;;;;;1.96;86.26;100397.19;5104193;28;20016;-70
2022/12/30 00:07:27;;;;;;;118.15;58.25;;;;;;;2.04;86.29;100404.19;5094296;28;20016;-70
2022/12/30 00:09:53;;;;;;;108.50;53.88;;;;;;;1.90;86.27;100395.44;5108695;28;20023;-69
2022/12/30 00:34:32;;;;;;;221.60;114.03;;;;;;;2.01;86.00;100388.97;5111802;28;20035;-78
2022/12/30 00:36:58;;;;;;;133.82;70.03;;;;;;;1.97;85.42;100371.25;5109694;28;20024;-68
2022/12/30 00:39:24;;;;;;;129.50;65.85;;;;;;;2.06;85.76;100375.25;5110441;28;20038;-70
2022/12/30 00:44:33;;;;;;;107.30;53.45;;;;;;;1.99;85.90;100385.63;5110782;28;20030;-71
2022/12/30 00:46:59;;;;;;;102.60;55.97;;;;;;;2.05;86.51;100395.66;5107895;28;20024;-72
2022/12/30 00:57:37;;;;;;;124.47;58.53;;;;;;;0.97;97.35;100401.16;5109927;28;20177;-70
2022/12/30 01:00:06;;;;;;;111.35;56.58;;;;;;;0.94;96.67;100401.63;5105451;28;20107;-71
2022/12/30 01:02:32;;;;;;;111.78;56.92;;;;;;;0.95;97.49;100403.31;5106066;28;20019;-76
2022/12/30 01:04:57;;;;;;;114.60;58.25;;;;;;;0.86;97.91;100396.56;5103573;28;20023;-72
2022/12/30 01:07:23;;;;;;;113.38;59.20;;;;;;;1.05;97.59;100405.44;5105423;28;20489;-70
2022/12/30 01:09:48;;;;;;;111.60;59.15;;;;;;;0.56;98.55;100397.63;5110188;28;20043;-74
2022/12/30 01:12:14;;;;;;;107.03;59.97;;;;;;;0.65;97.54;100390.66;5108021;28;20083;-72
2022/12/30 01:14:40;;;;;;;116.60;60.42;;;;;;;0.55;95.66;100390.44;5112051;28;20474;-73
2022/12/30 01:17:07;;;;;;;111.85;58.25;;;;;;;0.27;94.96;100381.09;5109810;28;20028;-73
2022/12/30 01:19:33;;;;;;;99.82;54.00;;;;;;;0.46;95.67;100392.75;5103301;28;20027;-73
2022/12/30 01:21:59;;;;;;;116.32;57.88;;;;;;;0.53;94.88;100387.13;5110947;28;20558;-72
2022/12/30 01:24:24;;;;;;;112.10;55.28;;;;;;;0.49;94.58;100377.69;5109428;28;20032;-70
2022/12/30 01:26:50;;;;;;;106.47;53.00;;;;;;;0.39;95.26;100370.88;5110553;28;20122;-68
2022/12/30 01:29:26;;;;;;;103.30;51.90;;;;;;;0.30;95.43;100374.25;5110744;28;20063;-70
2022/12/30 01:31:58;;;;;;;99.03;51.78;;;;;;;0.16;96.62;100377.28;5107853;28;20031;-69
2022/12/30 01:34:24;;;;;;;106.30;55.45;;;;;;;0.21;97.36;100371.91;5092376;28;20107;-67
2022/12/30 01:36:50;;;;;;;98.90;48.78;;;;;;;0.28;96.53;100366.25;5105698;28;20038;-67
2022/12/30 01:39:16;;;;;;;97.10;48.08;;;;;;;0.27;96.36;100353.59;5107454;28;20028;-70
2022/12/30 01:41:41;;;;;;;84.60;42.13;;;;;;;0.24;96.69;100363.16;5107883;28;20168;-69
2022/12/30 01:44:44;;;;;;;125.70;65.93;;;;;;;0.11;97.37;100372.50;5111512;28;20027;-75
2022/12/30 01:47:13;;;;;;;93.78;48.38;;;;;;;0.18;97.67;100363.28;5110051;28;20061;-70
2022/12/30 01:49:43;;;;;;;65.13;34.35;;;;;;;0.03;98.97;100364.66;5105180;28;20031;-70
2022/12/30 01:52:10;;;;;;;73.78;38.60;;;;;;;0.11;98.91;100363.44;5103381;28;20413;-73
2022/12/30 01:54:36;;;;;;;82.78;38.63;;;;;;;0.33;97.87;100368.28;5106428;28;20035;-71
2022/12/30 01:57:04;;;;;;;80.72;42.22;;;;;;;0.49;95.08;100363.91;5108995;28;20031;-72
2022/12/30 01:59:30;;;;;;;67.68;34.30;;;;;;;-0.25;98.15;100359.91;5107950;28;20046;-73
2022/12/30 02:01:56;;;;;;;76.25;38.50;;;;;;;-0.19;98.74;100359.78;5104106;28;20088;-71
2022/12/30 02:04:24;;;;;;;78.32;39.15;;;;;;;0.10;97.89;100365.34;5101947;28;20410;-73
2022/12/30 02:06:59;;;;;;;77.78;37.65;;;;;;;-0.46;98.01;100357.56;5108823;28;20045;-73
2022/12/30 02:09:26;;;;;;;73.95;39.72;;;;;;;-0.26;98.30;100356.31;5099058;28;20019;-72
2022/12/30 02:11:52;;;;;;;79.78;40.00;;;;;;;-0.57;99.24;100352.88;5107939;28;20375;-72
2022/12/30 02:14:20;;;;;;;73.15;37.63;;;;;;;-0.43;99.54;100354.31;5107447;28;20032;-73
2022/12/30 02:17:13;;;;;;;71.78;36.50;;;;;;;-0.12;99.65;100348.66;5109496;28;20506;-71
2022/12/30 02:20:00;;;;;;;76.63;40.70;;;;;;;0.16;97.35;100365.47;5123205;27;20578;-75
2022/12/30 02:23:03;;;;;;;69.53;35.78;;;;;;;0.22;95.15;100353.47;5104347;28;20069;-72
2022/12/30 02:25:53;;;;;;;73.70;36.00;;;;;;;0.47;93.85;100353.13;5097680;28;20051;-70
2022/12/30 02:28:49;;;;;;;75.13;39.80;;;;;;;-0.34;91.91;100351.22;5105982;28;20147;-73
2022/12/30 02:31:42;;;;;;;74.15;37.40;;;;;;;-0.25;94.49;100349.72;5109201;28;20032;-73
2022/12/30 02:34:35;;;;;;;97.70;49.45;;;;;;;-0.29;95.39;100362.31;5108995;28;20059;-77
2022/12/30 02:37:23;;;;;;;80.20;40.67;;;;;;;0.12;95.39;100349.44;5111458;28;20115;-70
2022/12/30 02:40:12;;;;;;;89.07;49.45;;;;;;;0.37;93.84;100355.69;5111302;28;20554;-72
2022/12/30 02:45:45;;;;;;;71.85;37.05;;;;;;;0.13;93.87;100351.13;5109346;28;20583;-73
2022/12/30 02:48:22;;;;;;;61.63;35.05;;;;;;;0.17;91.47;100353.38;5109382;28;20027;-72
2022/12/30 02:53:38;;;;;;;74.18;38.97;;;;;;;0.38;90.28;100357.34;5118284;28;20092;-72
2022/12/30 02:56:04;;;;;;;72.95;39.67;;;;;;;0.12;88.17;100356.84;5115124;27;20429;-73
2022/12/30 02:58:34;;;;;;;70.35;37.42;;;;;;;0.21;89.12;100358.16;5116937;27;20020;-72
2022/12/30 03:04:08;;;;;;;72.32;38.03;;;;;;;0.54;87.27;100353.84;5101472;28;20039;-73
2022/12/30 03:06:42;;;;;;;73.85;38.38;;;;;;;0.63;86.86;100369.94;5098027;28;20045;-72
2022/12/30 03:09:23;;;;;;;78.03;39.75;;;;;;;0.57;87.34;100379.19;5097971;28;20032;-73
2022/12/30 03:12:00;;;;;;;71.70;39.08;;;;;;;0.09;87.65;100371.09;5097898;28;20109;-72
2022/12/30 03:14:47;;;;;;;84.20;40.42;;;;;;;0.27;87.28;100375.59;5114674;28;20032;-73
2022/12/30 03:17:22;;;;;;;78.28;41.55;;;;;;;-0.34;88.60;100368.53;5118394;28;20021;-72
2022/12/30 03:19:52;;;;;;;76.22;38.67;;;;;;;-0.33;90.77;100372.13;5118110;27;20019;-73
2022/12/30 03:27:53;;;;;;;66.43;35.65;;;;;;;0.42;88.54;100380.56;5115519;28;20038;-72
2022/12/30 03:30:20;;;;;;;77.80;41.58;;;;;;;0.51;88.29;100378.25;5116765;28;20118;-72
2022/12/30 03:32:46;;;;;;;70.03;38.22;;;;;;;0.67;87.39;100380.22;5118149;27;20024;-72
2022/12/30 03:35:12;;;;;;;71.85;38.95;;;;;;;0.63;87.52;100375.44;5117964;28;20024;-73
2022/12/30 03:37:47;;;;;;;71.95;36.38;;;;;;;0.05;88.90;100370.75;5116606;28;20025;-72
2022/12/30 03:40:23;;;;;;;72.72;36.30;;;;;;;0.37;89.05;100378.56;5118406;27;20042;-73
2022/12/30 03:42:52;;;;;;;73.30;35.33;;;;;;;0.38;87.47;100385.72;5117461;27;20034;-73
2022/12/30 03:45:17;;;;;;;74.57;37.65;;;;;;;0.48;87.20;100384.25;5117991;27;20075;-73
2022/12/30 03:47:43;;;;;;;64.05;35.38;;;;;;;0.56;86.79;100381.09;5117882;27;20110;-73
2022/12/30 03:50:09;;;;;;;71.68;37.28;;;;;;;0.61;86.26;100378.47;5116271;28;20067;-73
2022/12/30 03:52:35;;;;;;;77.82;39.50;;;;;;;0.61;86.34;100392.25;5117918;28;20495;-73
2022/12/30 03:55:00;;;;;;;78.13;38.40;;;;;;;0.76;85.23;100393.59;5117807;27;20131;-72
2022/12/30 03:57:26;;;;;;;70.63;37.30;;;;;;;0.83;84.95;100394.28;5115893;28;20028;-72
2022/12/30 03:59:54;;;;;;;64.88;34.30;;;;;;;0.85;84.05;100389.38;5117805;27;20051;-73
2022/12/30 04:02:19;;;;;;;78.15;38.03;;;;;;;0.77;84.18;100384.25;5117845;27;20153;-72
2022/12/30 04:04:45;;;;;;;107.30;48.03;;;;;;;0.80;84.07;100384.59;5104709;28;20067;-73
2022/12/30 04:07:11;;;;;;;105.38;52.58;;;;;;;0.32;85.18;100397.72;5094246;28;20027;-72
2022/12/30 04:09:36;;;;;;;111.22;51.92;;;;;;;0.61;85.11;100394.13;5092935;28;20058;-73
2022/12/30 04:12:02;;;;;;;103.95;49.83;;;;;;;0.75;84.59;100395.50;5102097;28;20036;-72
2022/12/30 04:14:27;;;;;;;274.48;169.30;;;;;;;0.64;83.91;100391.75;5105311;28;20030;-73
2022/12/30 04:16:52;;;;;;;130.63;65.70;;;;;;;0.51;83.48;100394.78;5113159;28;20089;-74
2022/12/30 04:19:18;;;;;;;124.60;63.92;;;;;;;0.50;83.86;100390.38;5113868;28;20028;-73
2022/12/30 04:21:44;;;;;;;128.27;62.40;;;;;;;0.60;83.95;100390.53;5113007;28;20038;-73
2022/12/30 04:24:12;;;;;;;101.72;55.00;;;;;;;0.51;84.26;100400.28;5114292;28;20102;-73
2022/12/30 04:26:38;;;;;;;89.38;48.92;;;;;;;0.47;83.82;100399.09;5112020;28;20019;-73
2022/12/30 04:29:03;;;;;;;93.70;47.83;;;;;;;0.28;83.91;100400.09;5112836;28;20038;-73
2022/12/30 04:31:29;;;;;;;81.50;45.85;;;;;;;0.26;83.43;100396.75;5113087;27;20426;-73
2022/12/30 04:33:54;;;;;;;82.68;43.75;;;;;;;0.37;82.80;100406.09;5112784;28;20083;-73
2022/12/30 04:36:21;;;;;;;85.45;45.10;;;;;;;0.19;83.95;100397.97;5106027;28;20099;-72
2022/12/30 04:38:47;;;;;;;91.05;46.50;;;;;;;0.19;83.49;100386.97;5093970;28;20181;-73
2022/12/30 04:41:13;;;;;;;93.50;49.55;;;;;;;0.33;83.37;100393.88;5092836;28;20107;-73
2022/12/30 04:43:38;;;;;;;87.60;46.85;;;;;;;0.14;83.38;100401.47;5093884;28;20024;-73
2022/12/30 04:46:05;;;;;;;91.22;50.83;;;;;;;0.14;83.57;100398.72;5111590;28;20023;-73
2022/12/30 04:48:31;;;;;;;88.60;46.72;;;;;;;0.30;83.40;100405.38;5113896;28;20031;-73
2022/12/30 04:50:57;;;;;;;81.03;43.22;;;;;;;-0.05;83.88;100404.38;5113739;28;20046;-73
2022/12/30 04:53:22;;;;;;;81.95;43.13;;;;;;;-0.04;84.21;100400.56;5113751;28;20023;-73
2022/12/30 04:55:52;;;;;;;83.90;44.50;;;;;;;0.15;83.69;100410.56;5112989;28;20451;-73
2022/12/30 04:58:18;;;;;;;85.82;43.80;;;;;;;0.17;82.94;100408.41;5113688;28;20503;-72
2022/12/30 05:00:43;;;;;;;78.68;40.60;;;;;;;0.07;82.38;100409.03;5111195;28;20118;-73
2022/12/30 05:03:09;;;;;;;86.13;42.05;;;;;;;-0.04;82.21;100406.06;5113798;28;20059;-72
2022/12/30 05:05:34;;;;;;;89.50;46.95;;;;;;;-0.66;83.95;100415.63;5112098;28;20118;-72
2022/12/30 05:08:00;;;;;;;157.68;75.72;;;;;;;-0.92;87.38;100412.19;5113720;28;20023;-73
2022/12/30 05:10:25;;;;;;;234.98;107.35;;;;;;;-0.91;88.14;100411.13;5107988;28;20056;-72
2022/12/30 05:12:51;;;;;;;245.35;112.88;;;;;;;-0.81;89.29;100418.81;5113347;28;20094;-73
2022/12/30 05:15:17;;;;;;;174.68;89.38;;;;;;;-0.59;89.21;100430.06;5111395;28;20116;-73
2022/12/30 05:17:42;;;;;;;179.32;88.25;;;;;;;-0.51;89.65;100423.38;5113029;28;20089;-73
2022/12/30 05:20:08;;;;;;;221.02;104.28;;;;;;;-0.39;88.83;100423.41;5111793;28;20134;-73
2022/12/30 05:22:34;;;;;;;183.15;89.63;;;;;;;-0.47;88.62;100432.84;5113124;28;20080;-73
2022/12/30 05:27:44;;;;;;;144.18;67.10;;;;;;;-0.55;86.06;100424.09;5113079;28;20035;-73
2022/12/30 05:30:10;;;;;;;146.30;70.88;;;;;;;-0.68;87.46;100427.91;5112297;28;20052;-73
2022/12/30 05:32:35;;;;;;;135.88;64.60;;;;;;;-0.70;89.15;100433.63;5111131;28;20032;-73
2022/12/30 05:35:01;;;;;;;131.55;67.30;;;;;;;-0.45;87.84;100427.09;5112764;28;20028;-72
2022/12/30 05:37:26;;;;;;;125.15;61.97;;;;;;;-0.24;87.16;100416.59;5111603;28;20466;-73
2022/12/30 05:39:52;;;;;;;129.32;63.90;;;;;;;-0.22;86.15;100425.44;5111568;28;20452;-73
2022/12/30 05:42:17;;;;;;;133.45;70.70;;;;;;;-0.11;85.47;100426.50;5112632;28;20084;-73
2022/12/30 05:44:43;;;;;;;139.93;67.93;;;;;;;-0.03;85.53;100423.38;5110327;28;20087;-73
2022/12/30 05:47:08;;;;;;;147.63;74.50;;;;;;;-0.06;85.10;100426.63;5112535;28;20028;-73
2022/12/30 05:49:34;;;;;;;187.32;83.68;;;;;;;-0.32;86.13;100442.53;5109157;28;20035;-73
2022/12/30 05:51:59;;;;;;;170.10;92.53;;;;;;;-0.20;85.43;100424.13;5107088;28;20035;-73
2022/12/30 05:54:25;;;;;;;152.23;75.18;;;;;;;-0.25;85.02;100445.97;5109523;28;20070;-73
2022/12/30 05:56:50;;;;;;;114.65;56.33;;;;;;;-0.61;84.86;100443.22;5093291;28;20434;-71
2022/12/30 05:59:16;;;;;;;116.05;58.65;;;;;;;-0.48;84.33;100444.06;5099047;28;20032;-72
2022/12/30 06:01:41;;;;;;;143.85;69.72;;;;;;;-0.40;83.69;100440.97;5107458;28;20024;-73
2022/12/30 06:04:07;;;;;;;135.80;65.47;;;;;;;-0.32;83.35;100453.53;5111238;28;20556;-72
2022/12/30 06:06:32;;;;;;;133.20;61.92;;;;;;;-0.50;83.37;100449.78;5112229;28;20051;-68
2022/12/30 06:08:58;;;;;;;124.07;61.67;;;;;;;-0.45;84.17;100449.09;5111089;28;20035;-71
2022/12/30 06:11:24;;;;;;;121.88;62.92;;;;;;;-0.32;83.50;100443.34;5112051;28;20040;-74
2022/12/30 06:13:49;;;;;;;145.98;70.10;;;;;;;-0.28;83.26;100443.72;5110308;28;20028;-72
2022/12/30 06:16:15;;;;;;;132.10;65.07;;;;;;;-0.62;84.06;100443.44;5105366;28;20450;-73
2022/12/30 06:18:40;;;;;;;128.05;66.65;;;;;;;-0.37;84.54;100458.88;5111764;28;20057;-74
2022/12/30 06:21:06;;;;;;;164.70;75.28;;;;;;;-0.28;83.99;100457.47;5110581;28;20061;-72
2022/12/30 06:23:31;;;;;;;140.13;69.57;;;;;;;-0.53;84.66;100460.44;5111212;28;20395;-69
2022/12/30 06:25:58;;;;;;;116.50;58.15;;;;;;;-0.88;85.45;100468.38;5110407;28;20501;-73
2022/12/30 06:28:25;;;;;;;178.88;91.32;;;;;;;-0.74;85.67;100466.25;5104543;28;20458;-72
2022/12/30 06:30:51;;;;;;;164.70;73.55;;;;;;;-1.49;90.19;100462.00;5099976;28;20126;-72
2022/12/30 06:33:17;;;;;;;205.90;96.28;;;;;;;-1.40;91.96;100463.38;5106193;28;20545;-73
2022/12/30 06:35:44;;;;;;;221.60;105.00;;;;;;;-1.02;92.22;100461.41;5109578;28;20119;-72
2022/12/30 06:38:10;;;;;;;264.08;122.38;;;;;;;-0.76;91.41;100471.13;5109359;28;20103;-72
2022/12/30 06:40:35;;;;;;;247.95;119.68;;;;;;;-0.63;91.41;100466.50;5108369;28;20177;-72
2022/12/30 06:43:01;;;;;;;214.95;109.78;;;;;;;-0.48;90.91;100471.56;5107652;28;20034;-72
2022/12/30 06:45:26;;;;;;;214.45;104.15;;;;;;;-0.63;92.35;100481.09;5103940;28;20027;-70
2022/12/30 06:47:52;;;;;;;211.52;101.78;;;;;;;-0.60;93.96;100483.38;5100455;28;20028;-71
2022/12/30 06:50:17;;;;;;;182.27;83.65;;;;;;;-0.83;94.49;100475.06;5094585;28;20028;-73
2022/12/30 06:52:43;;;;;;;160.82;75.63;;;;;;;-0.79;94.99;100479.84;5105228;28;20521;-72
2022/12/30 06:55:09;;;;;;;140.68;74.25;;;;;;;-0.57;95.09;100477.38;5091863;28;20435;-73
2022/12/30 06:57:34;;;;;;;162.70;94.80;;;;;;;-0.73;94.56;100476.16;5102048;28;20447;-73
2022/12/30 07:00:00;;;;;;;166.75;92.65;;;;;;;-0.60;95.37;100488.03;5106797;28;20120;-73
2022/12/30 07:02:26;;;;;;;145.70;76.38;;;;;;;-0.54;95.60;100487.09;5106226;28;20024;-79
2022/12/30 07:04:52;;;;;;;200.93;96.22;;;;;;;-0.59;96.42;100481.47;5107377;28;20039;-71
2022/12/30 07:07:17;;;;;;;170.48;90.30;;;;;;;-0.14;96.03;100480.06;5107324;28;20024;-73
2022/12/30 07:09:43;;;;;;;139.70;73.63;;;;;;;-0.05;95.54;100486.91;5107817;28;20486;-77
2022/12/30 07:12:08;;;;;;;154.20;75.57;;;;;;;0.16;94.37;100492.03;5108614;28;20027;-69
2022/12/30 07:14:34;;;;;;;139.00;67.28;;;;;;;0.21;94.32;100484.72;5106518;28;20391;-74
2022/12/30 07:16:59;;;;;;;168.48;83.78;;;;;;;0.31;93.33;100469.53;5102028;28;20080;-75
2022/12/30 07:19:26;;;;;;;163.70;84.78;;;;;;;0.37;93.41;100463.91;5107053;28;20464;-74
2022/12/30 07:21:52;;;;;;;184.63;94.35;;;;;;;0.71;93.14;100487.97;5107047;28;20031;-69
2022/12/30 07:24:18;;;;;;;206.90;100.78;;;;;;;0.87;92.83;100489.13;5105392;28;20347;-73
2022/12/30 07:26:43;;;;;;;168.90;86.00;;;;;;;1.10;91.71;100490.13;5107999;28;20062;-70
2022/12/30 07:29:08;;;;;;;125.50;67.97;;;;;;;1.43;91.27;100490.41;5107991;28;20520;-72
2022/12/30 07:31:34;;;;;;;113.80;60.47;;;;;;;1.75;89.99;100484.31;5099316;28;20047;-74
2022/12/30 07:33:59;;;;;;;105.05;55.33;;;;;;;2.07;88.74;100500.28;5106824;28;20027;-73
2022/12/30 07:36:25;;;;;;;101.88;55.63;;;;;;;2.23;87.99;100488.38;5104430;28;20020;-70
2022/12/30 07:38:50;;;;;;;94.65;47.47;;;;;;;2.30;87.09;100496.50;5108076;28;20072;-71
2022/12/30 07:41:16;;;;;;;110.47;57.40;;;;;;;2.44;87.11;100490.59;5102099;28;20067;-74
2022/12/30 07:43:41;;;;;;;134.07;73.40;;;;;;;2.78;86.50;100496.00;5090618;28;20402;-68
2022/12/30 07:46:08;;;;;;;100.15;54.90;;;;;;;2.99;85.66;100494.31;5103465;28;20391;-74
2022/12/30 07:48:34;;;;;;;137.32;70.38;;;;;;;3.17;85.38;100495.88;5101704;28;20486;-74
2022/12/30 07:51:06;;;;;;;151.43;71.80;;;;;;;3.33;85.00;100496.03;5103945;28;20020;-74
2022/12/30 07:53:32;;;;;;;124.30;66.43;;;;;;;3.19;85.48;100493.69;5112351;28;20027;-73
2022/12/30 07:55:57;;;;;;;119.18;64.38;;;;;;;3.28;85.07;100504.28;5111191;28;20376;-75
2022/12/30 07:58:23;;;;;;;121.10;59.67;;;;;;;3.23;85.22;100497.59;5111112;28;20023;-82
2022/12/30 08:00:48;;;;;;;118.15;62.00;;;;;;;3.34;86.15;100500.47;5112280;28;20027;-74
2022/12/30 08:03:13;;;;;;;107.30;57.10;;;;;;;3.42;86.05;100500.00;5104692;28;20023;-81
2022/12/30 08:05:39;;;;;;;101.75;54.70;;;;;;;3.63;86.14;100502.97;5111797;28;20049;-73
2022/12/30 08:08:05;;;;;;;100.28;51.78;;;;;;;3.88;84.48;100499.56;5111171;28;20406;-74
2022/12/30 08:10:30;;;;;;;97.97;49.85;;;;;;;4.08;83.75;100509.94;5110315;28;20032;-73
2022/12/30 08:12:56;;;;;;;94.10;50.88;;;;;;;4.18;81.62;100486.19;5110638;28;20510;-75
2022/12/30 08:15:23;;;;;;;107.25;54.88;;;;;;;4.23;82.91;100491.78;5109970;28;20088;-75
2022/12/30 08:17:48;;;;;;;104.68;54.90;;;;;;;4.46;82.21;100490.53;5113111;28;20019;-74
2022/12/30 08:20:14;;;;;;;107.20;57.13;;;;;;;4.56;81.79;100494.44;5111385;28;20028;-74
2022/12/30 08:22:39;;;;;;;99.25;51.38;;;;;;;4.76;80.91;100491.75;5107809;28;20028;-74
2022/12/30 08:25:05;;;;;;;109.80;54.90;;;;;;;4.78;80.62;100486.78;5107606;28;20042;-74
2022/12/30 08:27:32;;;;;;;103.65;55.00;;;;;;;4.69;81.38;100496.72;5108133;28;20126;-74
2022/12/30 08:29:57;;;;;;;100.82;50.08;;;;;;;4.75;81.48;100486.50;5109817;28;20532;-72
2022/12/30 08:32:23;;;;;;;90.40;48.30;;;;;;;4.89;81.02;100493.19;5111712;28;20051;-74
2022/12/30 08:34:48;;;;;;;90.50;46.83;;;;;;;5.12;79.71;100479.97;5111986;28;20797;-73
2022/12/30 08:37:14;;;;;;;107.65;57.75;;;;;;;5.19;80.14;100488.88;5111111;28;20053;-74
2022/12/30 08:39:39;;;;;;;99.10;53.25;;;;;;;5.14;80.37;100491.59;5105877;28;20344;-70
2022/12/30 08:42:05;;;;;;;112.75;53.17;;;;;;;5.27;80.17;100487.50;5097813;28;20024;-72
2022/12/30 08:44:31;;;;;;;80.65;45.92;;;;;;;5.46;79.52;100476.69;5107610;28;20160;-70
2022/12/30 08:46:56;;;;;;;77.28;40.75;;;;;;;5.47;80.63;100486.69;5105970;28;20508;-74
2022/12/30 08:49:22;;;;;;;76.70;43.75;;;;;;;5.41;82.17;100475.84;5110380;28;20032;-72
2022/12/30 08:51:48;;;;;;;72.30;39.45;;;;;;;5.63;80.75;100472.81;5111021;28;20063;-77
2022/12/30 08:54:14;;;;;;;77.57;39.78;;;;;;;5.68;81.01;100464.50;5091062;28;20122;-73
2022/12/30 08:56:40;;;;;;;73.57;37.97;;;;;;;5.60;81.83;100459.50;5091723;28;20070;-73
2022/12/30 08:59:06;;;;;;;71.07;39.60;;;;;;;5.61;82.56;100466.69;5102797;28;20062;-74
2022/12/30 09:01:42;;;;;;;74.93;43.28;;;;;;;5.70;81.24;100453.94;5111381;28;20048;-74
2022/12/30 09:04:08;;;;;;;68.95;39.78;;;;;;;5.72;82.70;100453.63;5110263;28;20101;-73
2022/12/30 09:06:39;;;;;;;75.57;38.80;;;;;;;5.67;82.11;100456.44;5111170;28;20567;-73
2022/12/30 09:09:05;;;;;;;;;;;;;;;5.95;81.31;100457.81;5098934;28;20024;-73
2022/12/30 09:11:33;;;;;;;100.75;47.63;;;;;;;6.32;79.90;100450.25;5110691;28;20393;-73
2022/12/30 09:14:00;;;;;;;66.95;41.92;;;;;;;6.53;78.52;100448.25;5110816;28;20027;-74
2022/12/30 09:16:27;;;;;;;66.60;39.80;;;;;;;6.65;78.46;100445.13;5101637;28;20111;-73
2022/12/30 09:18:52;;;;;;;72.28;41.00;;;;;;;6.82;78.39;100449.50;5090384;28;20035;-72
2022/12/30 09:21:19;;;;;;;72.35;40.60;;;;;;;6.93;77.46;100447.50;5097932;28;20506;-74
2022/12/30 09:23:45;;;;;;;74.85;42.83;;;;;;;6.90;77.66;100446.13;5111652;28;20422;-73
2022/12/30 09:26:15;;;;;;;74.13;44.75;;;;;;;7.09;77.50;100429.59;5110339;28;20110;-73
2022/12/30 09:28:40;;;;;;;;;;;;;;;7.15;76.01;100433.16;5113434;28;20023;-73
2022/12/30 09:31:06;;;;;;;69.53;39.88;;;;;;;7.28;75.22;100431.72;5107371;28;20411;-73
2022/12/30 09:33:32;;;;;;;66.35;37.08;;;;;;;7.23;75.85;100417.81;5108202;28;20410;-73
2022/12/30 09:35:58;;;;;;;75.05;41.95;;;;;;;7.39;75.26;100413.81;5092576;28;20099;-73
2022/12/30 09:38:23;;;;;;;64.78;36.50;;;;;;;7.46;74.37;100416.25;5102806;28;20114;-73
2022/12/30 09:40:57;;;;;;;66.22;37.33;;;;;;;7.77;73.50;100412.38;5110666;28;20442;-73
2022/12/30 09:43:25;;;;;;;70.05;39.78;;;;;;;7.77;73.93;100413.19;5109738;28;20088;-74
2022/12/30 09:45:59;;;;;;;59.47;34.63;;;;;;;7.83;74.42;100394.47;5106012;28;20114;-73
2022/12/30 09:48:30;;;;;;;60.80;34.78;;;;;;;8.04;73.57;100403.47;5121161;27;20020;-74
2022/12/30 09:51:01;;;;;;;63.75;35.53;;;;;;;8.20;71.74;100395.75;5108931;28;20047;-73
2022/12/30 09:54:02;;;;;;;48.50;31.17;;;;;;;8.43;70.63;100388.50;5109537;28;20023;-73
2022/12/30 09:56:36;;;;;;;54.15;33.03;;;;;;;7.85;71.35;100383.88;5112312;28;20525;-73
2022/12/30 09:59:24;;;;;;;52.08;30.75;;;;;;;8.28;71.25;100383.13;5109785;28;20084;-73
2022/12/30 10:01:57;;;;;;;43.63;26.67;;;;;;;8.53;69.86;100372.81;5107318;28;20084;-72
2022/12/30 10:04:26;;;;;;;46.28;26.63;;;;;;;8.67;70.47;100378.47;5111019;28;20023;-73
2022/12/30 10:07:02;;;;;;;50.78;28.23;;;;;;;8.71;70.24;100374.78;5112262;28;20024;-73
2022/12/30 10:09:39;;;;;;;50.30;28.98;;;;;;;8.68;71.40;100366.19;5110160;28;20104;-75
2022/12/30 10:12:13;;;;;;;57.30;34.30;;;;;;;8.91;70.92;100358.03;5108937;28;20027;-73
2022/12/30 10:14:48;;;;;;;68.40;36.20;;;;;;;8.99;70.91;100349.84;5111175;28;20026;-72
2022/12/30 10:17:44;;;;;;;55.78;32.72;;;;;;;8.98;70.94;100344.56;5110164;28;20038;-73
2022/12/30 10:20:33;;;;;;;55.13;33.70;;;;;;;9.04;70.62;100346.13;5109491;28;20454;-73
2022/12/30 10:23:21;;;;;;;80.28;48.95;;;;;;;9.15;69.98;100346.81;5110042;28;20024;-76
2022/12/30 10:25:46;;;;;;;73.47;43.78;;;;;;;9.23;69.73;100337.75;5090368;28;20494;-73
2022/12/30 10:28:14;;;;;;;66.43;38.58;;;;;;;9.29;69.61;100330.13;5105739;28;20076;-73
2022/12/30 10:30:46;;;;;;;62.72;39.08;;;;;;;9.51;69.34;100332.22;5111728;28;20070;-73
2022/12/30 10:33:22;;;;;;;67.57;41.63;;;;;;;9.47;68.92;100324.78;5112000;28;20438;-73
2022/12/30 10:35:53;;;;;;;53.00;31.27;;;;;;;9.49;68.26;100328.06;5111840;28;20076;-72
2022/12/30 10:38:28;;;;;;;54.78;32.35;;;;;;;9.65;68.24;100315.50;5112277;28;20020;-73
2022/12/30 10:41:14;;;;;;;51.80;31.00;;;;;;;9.93;66.90;100329.50;5110817;28;20016;-73
2022/12/30 10:44:17;;;;;;;60.88;32.90;;;;;;;10.10;66.48;100325.25;5091420;28;20031;-73
2022/12/30 10:47:01;;;;;;;53.80;30.77;;;;;;;9.95;67.25;100320.78;5091285;28;20031;-73
2022/12/30 10:49:32;;;;;;;50.13;30.25;;;;;;;10.04;66.75;100318.94;5091362;28;20106;-72
2022/12/30 10:51:58;;;;;;;55.15;33.30;;;;;;;10.06;66.86;100311.06;5091328;28;20044;-72
2022/12/30 10:54:24;;;;;;;50.92;31.85;;;;;;;10.17;65.73;100308.06;5111617;28;20406;-73
2022/12/30 10:56:49;;;;;;;50.45;31.83;;;;;;;10.17;66.07;100280.94;5109892;28;20533;-74
2022/12/30 10:59:21;;;;;;;54.15;32.67;;;;;;;10.28;65.99;100292.72;5110298;28;20456;-73
2022/12/30 11:01:48;;;;;;;56.35;34.42;;;;;;;10.33;65.69;100292.63;5109823;28;20020;-73
2022/12/30 11:04:32;;;;;;;53.85;30.92;;;;;;;10.43;65.69;100286.00;5111579;28;20591;-73
2022/12/30 11:07:01;;;;;;;48.78;30.27;;;;;;;10.22;66.53;100280.81;5110258;28;20031;-72
2022/12/30 11:09:26;;;;;;;56.63;33.80;;;;;;;10.17;66.57;100280.94;5111527;28;20088;-73
2022/12/30 11:14:54;;;;;;;58.35;30.30;;;;;;;10.62;64.73;100263.47;5115780;28;20104;-71
2022/12/30 11:17:23;;;;;;;44.47;27.48;;;;;;;10.63;65.04;100269.91;5112522;28;20061;-71
2022/12/30 11:19:59;;;;;;;50.95;30.17;;;;;;;10.60;65.33;100265.75;5115614;28;20028;-71
2022/12/30 11:22:27;;;;;;;42.28;27.75;;;;;;;10.72;63.60;100270.78;5114259;28;20387;-71
2022/12/30 11:25:33;;;;;;;52.22;29.17;;;;;;;10.68;65.52;100275.34;5114055;28;20414;-73
2022/12/30 11:28:06;;;;;;;47.50;28.35;;;;;;;10.58;65.63;100270.00;5112351;28;20050;-72
2022/12/30 11:30:51;;;;;;;55.30;33.75;;;;;;;10.74;65.34;100278.84;5114795;28;20083;-73
2022/12/30 11:33:24;;;;;;;49.22;29.90;;;;;;;10.82;65.17;100266.91;5124732;27;20122;-73
2022/12/30 11:35:50;;;;;;;50.10;29.77;;;;;;;10.94;63.46;100258.78;5114110;28;20024;-73
2022/12/30 11:38:30;;;;;;;55.47;31.02;;;;;;;11.04;62.22;100263.28;5098292;28;20035;-74
2022/12/30 11:40:57;;;;;;;56.30;31.85;;;;;;;11.10;62.09;100263.97;5105960;28;20066;-75
2022/12/30 11:43:23;;;;;;;50.22;32.22;;;;;;;11.05;62.03;100258.53;5110466;28;20027;-75
2022/12/30 11:45:55;;;;;;;50.03;29.88;;;;;;;11.23;62.76;100259.47;5113256;28;20024;-75
2022/12/30 11:48:46;;;;;;;45.17;29.30;;;;;;;11.22;62.18;100246.59;5113202;28;20043;-75
2022/12/30 11:51:24;;;;;;;50.40;30.65;;;;;;;11.36;62.03;100244.53;5104429;28;20418;-71
2022/12/30 11:54:27;;;;;;;45.22;27.88;;;;;;;11.30;62.01;100245.00;5101294;28;20031;-75
2022/12/30 11:57:21;;;;;;;45.38;27.30;;;;;;;11.31;62.02;100232.66;5064978;28;20058;-74
2022/12/30 11:59:52;;;;;;;43.78;24.45;;;;;;;11.05;62.02;100231.34;5110311;28;20046;-73
2022/12/30 12:02:38;;;;;;;42.13;25.20;;;;;;;11.15;61.59;100241.44;5106435;28;20038;-73
2022/12/30 12:05:22;;;;;;;45.72;26.00;;;;;;;11.40;61.04;100241.09;5109054;28;20068;-74
2022/12/30 12:07:51;;;;;;;57.35;33.40;;;;;;;11.56;60.92;100238.69;5109517;28;20039;-72
2022/12/30 12:10:23;;;;;;;37.83;24.55;;;;;;;11.45;60.94;100227.78;5107554;28;20080;-74
2022/12/30 12:12:55;;;;;;;39.15;24.85;;;;;;;11.55;60.74;100232.25;5110197;28;20032;-73
2022/12/30 12:15:32;;;;;;;41.95;24.42;;;;;;;11.47;60.80;100224.66;5110883;28;20034;-72